Weather at Rimouski (Hydro-Québec) Heliport [CLOSED]

Public forecast

Using degrees Celsius for public forecast. Weather courtesy of forecast.io.

Closest aviation weather report (METAR) to Rimouski (Hydro-Québec) Heliport

Closest report is Mont Joli Airport, 16.7 nm (30.9 km) NE. Retrieved 2021/03/06 15:00 UTC (43 minutes ago):

CYYY 061500Z CCA 25018G27KT 15SM -SN DRSN OVC036 M07/M13 A2961 RMK SC8 SLP034

Closest aviation forecast (TAF) to Rimouski (Hydro-Québec) Heliport

Closest forecast is Mont Joli Airport, 16.7 nm (30.9 km) NE. Retrieved 2021/03/06 14:00 UTC (2 hours ago):

TAF CYYY 061338Z 0614/0702 27020G30KT 6SM -SN OVC030 TEMPO 0614/0624 11/2SM -SN BLSN OVC020 FM070000 27015G25KT P6SM BKN030 TEMPO 0700/0702 3SM -SN RMK NXT FCST BY 062000Z